Flight Track Log - Related Links

Times and Time Zones

All times are in EDT time to prevent confusion due to time zone crossing. See the AWE1776 flight status page for this flight to view local times or setup timezone preferences in your user account.


Time Position Orientation Groundspeed Altitude Reporting Facility
EDT Latitude Longitude Course Direction KTS MPH feet Rate Location/Type
Fri 07:38:15 AM 30.0005 -95.3162 161° South  Level FlightAware Approximate
Fri 07:39:14 AM 29.9739 -95.3056 22° Northeast 245 282 2,300  Level Houston Center
Fri 07:40:18 AM 30.0500 -95.2697 34° Northeast 285 328 4,500 2,419 Climbing Houston Center
Fri 07:41:18 AM 30.1203 -95.2147 32° Northeast 285 328 7,300 2,750 Climbing Houston Center
Fri 07:42:18 AM 30.1925 -95.1619 31° Northeast 290 334 10,000 2,050 Climbing Houston Center
Fri 07:43:18 AM 30.2711 -95.1069 32° Northeast 308 354 11,400 1,900 Climbing Houston Center
Fri 07:44:18 AM 30.3561 -95.0447 35° Northeast 336 387 13,800 2,300 Climbing Houston Center
Fri 07:45:18 AM 30.4414 -94.9753 32° Northeast 354 407 16,000 2,050 Climbing Houston Center
Fri 07:46:18 AM 30.5328 -94.9083 34° Northeast 372 428 17,900 1,950 Climbing Houston Center
Fri 07:47:18 AM 30.6242 -94.8367 33° Northeast 382 440 19,900 1,950 Climbing Houston Center
Fri 07:48:18 AM 30.7197 -94.7647 34° Northeast 395 455 21,800 1,700 Climbing Houston Center
Fri 07:49:18 AM 30.8133 -94.6903 34° Northeast 401 461 23,300 1,400 Climbing Houston Center
Fri 07:50:18 AM 30.9111 -94.6133 33° Northeast 411 473 24,600 1,160 Climbing Houston Center
Fri 07:51:48 AM 31.0544 -94.5036 33° Northeast 444 511 26,200 1,040 Climbing Fort Worth Center
Fri 07:52:48 AM 31.1489 -94.4328 35° Northeast 451 519 27,200 1,200 Climbing Fort Worth Center
Fri 07:53:48 AM 31.2678 -94.3367 32° Northeast 451 519 28,600 900 Climbing Fort Worth Center
Fri 07:54:48 AM 31.3744 -94.2578 34° Northeast 456 525 29,000 650 Climbing Fort Worth Center
Fri 07:55:48 AM 31.4828 -94.1711 33° Northeast 456 525 29,900 950 Climbing Fort Worth Center
Fri 07:56:48 AM 31.5850 -94.0919 33° Northeast 475 547 30,900 1,150 Climbing Fort Worth Center
Fri 07:57:48 AM 31.7036 -93.9997 47° Northeast 482 555 32,200 1,150 Climbing Fort Worth Center
Fri 07:58:48 AM 31.7964 -93.8814 53° Northeast 469 540 33,200 1,050 Climbing Fort Worth Center
Fri 07:59:48 AM 31.8783 -93.7536 52° Northeast 469 540 34,300 1,200 Climbing Fort Worth Center
Fri 08:00:48 AM 31.9583 -93.6328 52° Northeast 477 549 35,600 1,250 Climbing Fort Worth Center
Fri 08:01:48 AM 32.0403 -93.5094 53° Northeast 477 549 36,800 900 Climbing Fort Worth Center
Fri 08:02:48 AM 32.1197 -93.3858 55° Northeast 472 543 37,400 750 Climbing Fort Worth Center
Fri 08:03:48 AM 32.2031 -93.2472 52° Northeast 472 543 38,300 700 Climbing Fort Worth Center
Fri 08:04:48 AM 32.2825 -93.1281 49° Northeast 467 537 38,800 350 Climbing Fort Worth Center
Fri 08:05:48 AM 32.3561 -93.0286 55° Northeast 452 520 39,000 100 Climbing Fort Worth Center
Fri 08:06:48 AM 32.4369 -92.8894 51° Northeast 460 529 39,000  Level Fort Worth Center
Fri 08:07:48 AM 32.5161 -92.7722 52° Northeast 465 535 39,000  Level Fort Worth Center
Fri 08:08:48 AM 32.5950 -92.6522 53° Northeast 465 535 39,000  Level Fort Worth Center
Fri 08:09:48 AM 32.6719 -92.5297 52° Northeast 460 529 39,000  Level Fort Worth Center
Fri 08:11:19 AM 32.7792 -92.3636 52° Northeast 461 531 39,000  Level Memphis Center
Fri 08:12:19 AM 32.8581 -92.2442 54° Northeast 461 531 39,000  Level Memphis Center
Fri 08:13:19 AM 32.9331 -92.1219 53° Northeast 456 525 39,000  Level Memphis Center
Fri 08:14:19 AM 33.0161 -91.9900 53° Northeast 456 525 39,000  Level Memphis Center
Fri 08:15:19 AM 33.0908 -91.8722 53° Northeast 451 519 39,000  Level Memphis Center
Fri 08:16:19 AM 33.1694 -91.7494 54° Northeast 451 519 39,000  Level Memphis Center
Fri 08:17:19 AM 33.2439 -91.6289 53° Northeast 451 519 39,000  Level Memphis Center
Fri 08:18:19 AM 33.3181 -91.5108 54° Northeast 451 519 39,000  Level Memphis Center
Fri 08:19:19 AM 33.3942 -91.3872 52° Northeast 456 525 39,000  Level Memphis Center
Fri 08:20:19 AM 33.4703 -91.2686 54° Northeast 456 525 39,000  Level Memphis Center
Fri 08:21:19 AM 33.5461 -91.1447 54° Northeast 456 525 39,000  Level Memphis Center
Fri 08:22:19 AM 33.6200 -91.0233 52° Northeast 456 525 39,000  Level Memphis Center
Fri 08:23:19 AM 33.7000 -90.8989 54° Northeast 461 531 39,000  Level Memphis Center
Fri 08:24:19 AM 33.7756 -90.7744 54° Northeast 455 524 39,000  Level Memphis Center
Fri 08:25:19 AM 33.8425 -90.6647 55° Northeast 455 524 39,000  Level Memphis Center
Fri 08:26:19 AM 33.9158 -90.5400 54° Northeast 455 524 39,000  Level Memphis Center
Fri 08:27:19 AM 33.9994 -90.4022 54° Northeast 455 524 39,000  Level Memphis Center
Fri 08:28:19 AM 34.0747 -90.2769 54° Northeast 463 533 39,000  Level Memphis Center
Fri 08:29:19 AM 34.1494 -90.1539 55° Northeast 458 527 39,000  Level Memphis Center
Fri 08:30:19 AM 34.2244 -90.0256 54° Northeast 458 527 39,000  Level Memphis Center
Fri 08:31:19 AM 34.2992 -89.8994 54° Northeast 458 527 39,000  Level Memphis Center
Fri 08:32:19 AM 34.3758 -89.7708 55° Northeast 466 536 39,000  Level Memphis Center
Fri 08:33:19 AM 34.4503 -89.6419 54° Northeast 466 536 39,000  Level Memphis Center
Fri 08:34:19 AM 34.5267 -89.5125 54° Northeast 471 542 39,000  Level Memphis Center
Fri 08:35:19 AM 34.6028 -89.3831 54° Northeast 471 542 39,000  Level Memphis Center
Fri 08:36:19 AM 34.6792 -89.2561 55° Northeast 471 542 39,000  Level Memphis Center
Fri 08:37:19 AM 34.7550 -89.1261 54° Northeast 471 542 39,000  Level Memphis Center
Fri 08:38:19 AM 34.8308 -88.9986 54° Northeast 471 542 39,000  Level Memphis Center
Fri 08:39:19 AM 34.9044 -88.8733 54° Northeast 463 533 39,000  Level Memphis Center
Fri 08:40:19 AM 34.9800 -88.7453 55° Northeast 458 527 39,000  Level Memphis Center
Fri 08:41:19 AM 35.0514 -88.6194 55° Northeast 452 520 39,000  Level Memphis Center
Fri 08:42:19 AM 35.1186 -88.5039 53° Northeast 459 528 39,000  Level Memphis Center
Fri 08:43:19 AM 35.1919 -88.3828 55° Northeast 454 522 39,000  Level Memphis Center
Fri 08:44:19 AM 35.2647 -88.2539 55° Northeast 454 522 39,000  Level Memphis Center
Fri 08:45:19 AM 35.3397 -88.1247 57° Northeast 459 528 39,000  Level Memphis Center
Fri 08:46:19 AM 35.4083 -87.9931 54° Northeast 459 528 39,000  Level Memphis Center
Fri 08:47:19 AM 35.4808 -87.8686 56° Northeast 459 528 39,000  Level Memphis Center
Fri 08:48:19 AM 35.5533 -87.7364 54° Northeast 459 528 39,000  Level Memphis Center
Fri 08:49:19 AM 35.6275 -87.6089 56° Northeast 459 528 39,000  Level Memphis Center
Fri 08:50:19 AM 35.6978 -87.4786 60° Northeast 459 528 39,000  Level Memphis Center
Fri 08:51:19 AM 35.7611 -87.3458 65° Northeast 454 522 39,000  Level Memphis Center
Fri 08:52:19 AM 35.8161 -87.2006 66° East 460 529 39,000  Level Memphis Center
Fri 08:53:19 AM 35.8744 -87.0419 68° East 460 529 39,000 50 Level Memphis Center
Fri 08:54:19 AM 35.9244 -86.8914 66° East 460 529 39,100  Climbing Memphis Center
Fri 08:55:19 AM 35.9767 -86.7456 66° East 460 529 39,000 -50 Descending Memphis Center
Fri 08:56:19 AM 36.0306 -86.5969 67° East 460 529 39,000  Level Memphis Center
Fri 08:57:19 AM 36.0803 -86.4508 66° East 460 529 39,000  Level Memphis Center
Fri 08:58:19 AM 36.1319 -86.3069 66° East 460 529 39,000  Level Memphis Center
Fri 08:59:59 AM 36.2158 -86.0692 67° East 482 555 39,000  Level Indianapolis Center
Fri 09:00:59 AM 36.2667 -85.9239 67° East 461 531 39,000  Level Indianapolis Center
Fri 09:01:59 AM 36.3156 -85.7786 67° East 452 520 39,000  Level Indianapolis Center
Fri 09:02:59 AM 36.3661 -85.6331 67° East 452 520 39,000  Level Indianapolis Center
Fri 09:03:59 AM 36.4167 -85.4847 69° East 452 520 39,000  Level Indianapolis Center
Fri 09:04:59 AM 36.4628 -85.3386 67° East 452 520 39,000  Level Indianapolis Center
Fri 09:05:59 AM 36.5150 -85.1875 66° East 452 520 39,000  Level Indianapolis Center
Fri 09:06:59 AM 36.5672 -85.0386 68° East 452 520 39,000  Level Indianapolis Center
Fri 09:07:59 AM 36.6103 -84.9075 69° East 452 520 39,000  Level Indianapolis Center
Fri 09:08:59 AM 36.6581 -84.7556 67° East 452 520 39,000  Level Indianapolis Center
Fri 09:09:59 AM 36.7072 -84.6086 68° East 457 526 39,000  Level Indianapolis Center
Fri 09:10:59 AM 36.7544 -84.4592 67° East 457 526 39,000  Level Indianapolis Center
Fri 09:11:59 AM 36.8056 -84.3092 68° East 457 526 39,000  Level Indianapolis Center
Fri 09:12:59 AM 36.8544 -84.1592 68° East 457 526 39,000  Level Indianapolis Center
Fri 09:13:59 AM 36.9031 -84.0089 68° East 462 532 39,000  Level Indianapolis Center
Fri 09:14:59 AM 36.9517 -83.8558 68° East 462 532 39,000  Level Indianapolis Center
Fri 09:15:59 AM 36.9997 -83.7053 69° East 467 537 39,000  Level Indianapolis Center
Fri 09:16:59 AM 37.0458 -83.5544 67° East 467 537 39,000  Level Indianapolis Center
Fri 09:17:59 AM 37.0958 -83.4033 69° East 475 547 39,000  Level Indianapolis Center
Fri 09:18:59 AM 37.1475 -83.2339 67° East 475 547 39,000  Level Indianapolis Center
Fri 09:19:59 AM 37.1992 -83.0797 69° East 475 547 39,000  Level Indianapolis Center
Fri 09:20:59 AM 37.2464 -82.9256 70° East 470 541 39,000  Level Indianapolis Center
Fri 09:21:59 AM 37.2914 -82.7711 69° East 477 549 39,000  Level Indianapolis Center
Fri 09:22:59 AM 37.3383 -82.6192 69° East 477 549 39,000  Level Indianapolis Center
Fri 09:23:59 AM 37.3850 -82.4644 69° East 472 543 39,000  Level Indianapolis Center
Fri 09:24:59 AM 37.4314 -82.3094 69° East 472 543 39,000  Level Indianapolis Center
Fri 09:25:59 AM 37.4775 -82.1569 69° East 466 536 39,000  Level Indianapolis Center
Fri 09:26:59 AM 37.5236 -82.0014 70° East 466 536 39,000  Level Indianapolis Center
Fri 09:27:59 AM 37.5694 -81.8433 69° East 471 542 39,000  Level Indianapolis Center
Fri 09:28:59 AM 37.6150 -81.6928 70° East 471 542 39,000 -165 Level Indianapolis Center
Fri 09:31:01 AM 37.7058 -81.3825 70° East 476 548 38,500 -492 Descending Washington Center
Fri 09:32:02 AM 37.7508 -81.2258 76° East 476 548 37,500 -744 Descending Washington Center
Fri 09:33:02 AM 37.7808 -81.0756 84° East 482 555 37,000 -254 Descending Washington Center
Fri 09:34:00 AM 37.7950 -80.9006 85° East 488 562 37,000  Level Washington Center
Fri 09:35:01 AM 37.8069 -80.7253 85° East 493 567 37,000  Level Washington Center
Fri 09:36:02 AM 37.8183 -80.5525 85° East 493 567 37,000 -454 Level Washington Center
Fri 09:37:00 AM 37.8297 -80.3769 86° East 493 567 36,100 -1,017 Descending Washington Center
Fri 09:38:00 AM 37.8414 -80.1806 85° East 498 573 35,000 -738 Descending Washington Center
Fri 09:39:02 AM 37.8522 -80.0050 85° East 498 573 34,600 -700 Descending Washington Center
Fri 09:40:00 AM 37.8647 -79.8294 86° East 498 573 33,600 -814 Descending Washington Center
Fri 09:41:00 AM 37.8753 -79.6511 86° East 498 573 33,000 -300 Descending Washington Center
Fri 09:42:00 AM 37.8850 -79.4781 87° East 498 573 33,000  Level Washington Center
Fri 09:43:02 AM 37.8928 -79.3022 85° East 498 573 33,000  Level Washington Center
Fri 09:44:01 AM 37.9039 -79.1419 83° East 498 573 33,000 -50 Level Washington Center
Fri 09:45:02 AM 37.9211 -78.9744 82° East 492 566 32,900  Descending Washington Center
Fri 09:46:00 AM 37.9406 -78.8042 81° East 492 566 33,000 50 Climbing Washington Center
Fri 09:47:01 AM 37.9617 -78.6286 81° East 497 572 33,000  Level Washington Center
Fri 09:48:01 AM 37.9828 -78.4528 81° East 497 572 33,000 -149 Level Washington Center
Fri 09:49:02 AM 38.0061 -78.2586 72° East 502 578 32,700 -655 Descending Washington Center
Fri 09:50:00 AM 38.0469 -78.0942 60° Northeast 496 571 31,700 -857 Descending Washington Center
Fri 09:51:01 AM 38.1125 -77.9511 57° Northeast 480 552 31,000 -347 Descending Washington Center
Fri 09:52:01 AM 38.1842 -77.8081 57° Northeast 469 540 31,000 -298 Level Washington Center
Fri 09:53:02 AM 38.2575 -77.6622 59° Northeast 474 545 30,400 -807 Descending Washington Center
Fri 09:54:00 AM 38.3289 -77.5133 57° Northeast 484 557 29,400 -712 Descending Washington Center
Fri 09:55:00 AM 38.4042 -77.3669 58° Northeast 491 565 29,000 -600 Descending Washington Center
Fri 09:56:00 AM 38.4792 -77.2122 57° Northeast 497 572 28,200 -885 Descending Washington Center
Fri 09:57:02 AM 38.5564 -77.0572 59° Northeast 503 579 27,200 -1,000 Descending Washington Center
Fri 09:58:00 AM 38.6247 -76.9122 59° Northeast 515 593 26,200 -1,525 Descending Washington Center
Fri 09:59:00 AM 38.6992 -76.7542 72° East 515 593 24,200 -1,488 Descending Washington Center
Fri 10:00:01 AM 38.7425 -76.5792 75° East 515 593 23,200 -1,230 Descending Washington Center
Fri 10:01:02 AM 38.7792 -76.3986 75° East 515 593 21,700 -2,017 Descending Washington Center
Fri 10:02:00 AM 38.8114 -76.2389 75° East 488 562 19,200 -2,571 Descending Washington Center
Fri 10:03:01 AM 38.8436 -76.0794 75° East 466 536 16,600 -2,083 Descending Washington Center
Fri 10:04:01 AM 38.8753 -75.9303 63° Northeast 447 514 15,000 -793 Descending Washington Center
Fri 10:05:02 AM 38.9278 -75.7969 30° Northeast 437 503 15,000 -717 Level Washington Center
Fri 10:06:40 AM 39.0933 -75.6753 North 350 403 13,100 -1,174 Descending FAA TRACON SMA TRACON (SMA)
Fri 10:07:20 AM 39.1506 -75.6683 North 328 377 12,300 -1,425 Descending FAA TRACON SMA TRACON (SMA)
Fri 10:08:00 AM 39.2128 -75.6608 North 321 369 11,200 -1,425 Descending FAA TRACON SMA TRACON (SMA)
Fri 10:08:40 AM 39.2717 -75.6536 North 307 353 10,400 -900 Descending FAA TRACON SMA TRACON (SMA)
Fri 10:09:20 AM 39.3183 -75.6489 North 282 325 10,000 -300 Descending FAA TRACON SMA TRACON (SMA)
Fri 10:10:00 AM 39.3664 -75.6419 North 246 283 10,000 -825 Level FAA TRACON SMA TRACON (SMA)
Fri 10:10:40 AM 39.4150 -75.6367 26° Northeast 251 289 8,900 -1,575 Descending FAA TRACON SMA TRACON (SMA)
Fri 10:11:20 AM 39.4542 -75.6119 63° Northeast 286 329 7,900 -1,425 Descending FAA TRACON SMA TRACON (SMA)
Fri 10:12:00 AM 39.4792 -75.5492 63° Northeast 284 327 7,000 -675 Descending FAA TRACON SMA TRACON (SMA)
Fri 10:12:40 AM 39.5014 -75.4928 63° Northeast 285 328 7,000  Level FAA TRACON SMA TRACON (SMA)
Fri 10:13:20 AM 39.5261 -75.4292 63° Northeast 284 327 7,000  Level FAA TRACON SMA TRACON (SMA)
Fri 10:14:00 AM 39.5506 -75.3661 55° Northeast 284 327 7,000  Level FAA TRACON SMA TRACON (SMA)
Fri 10:14:40 AM 39.5800 -75.3108 32° Northeast 268 308 7,000 -225 Level FAA TRACON SMA TRACON (SMA)
Fri 10:15:20 AM 39.6178 -75.2797 34° Northeast 268 308 6,700 -750 Descending FAA TRACON SMA TRACON (SMA)
Fri 10:16:00 AM 39.6597 -75.2433 35° Northeast 264 304 6,000 -525 Descending FAA TRACON SMA TRACON (SMA)
Fri 10:16:40 AM 39.7011 -75.2061 34° Northeast 265 305 6,000  Level FAA TRACON SMA TRACON (SMA)
Fri 10:17:20 AM 39.7392 -75.1728 34° Northeast 266 306 6,000  Level FAA TRACON SMA TRACON (SMA)
Fri 10:18:00 AM 39.7817 -75.1356 60° Northeast 264 304 6,000 -74 Level FAA TRACON SMA TRACON (SMA)
Fri 10:18:41 AM 39.8039 -75.0847 75° East 233 268 5,900  Descending FAA TRACON SMA TRACON (SMA)
Fri 10:19:21 AM 39.8139 -75.0356 75° East 220 253 6,000 -450 Climbing FAA TRACON SMA TRACON (SMA)
Fri 10:20:01 AM 39.8247 -74.9836 69° East 216 249 5,300 -1,275 Descending FAA TRACON SMA TRACON (SMA)
Fri 10:20:41 AM 39.8389 -74.9344 North 206 237 4,300 -975 Descending FAA TRACON SMA TRACON (SMA)
Fri 10:21:21 AM 39.8708 -74.9308 353° North 193 222 4,000 -675 Descending FAA TRACON SMA TRACON (SMA)
Fri 10:22:01 AM 39.9053 -74.9364 302° West 181 208 3,400 -759 Descending FAA TRACON SMA TRACON (SMA)
Fri 10:22:40 AM 39.9217 -74.9700 261° West 166 191 3,000 -300 Descending FAA TRACON SMA TRACON (SMA)
Fri 10:23:21 AM 39.9172 -75.0081 256° West 175 201 3,000 -150 Level FAA TRACON SMA TRACON (SMA)
Fri 10:24:00 AM 39.9094 -75.0489 256° West 167 192 2,800 -308 Descending FAA TRACON SMA TRACON (SMA)

Login

Don't have an account? Register now (free) for customized features, flight alerts, and more!